Terminal Aerodrome Forecast
Issued by NWS

Home | Current Version | Previous Version | Text Only | Print | Product List | Glossary On
Versions: 1 2 3 4 5 6 7 8 9 10 11 12 13
000
FTUS45 KRIW 230534
TAFRKS
TAF
KRKS 230534Z 2306/2406 13006KT P6SM SCT035 BKN070
     FM231800 06007KT 4SM -SN BKN016
     FM240300 31008KT P6SM VCSH SCT016 BKN050=

USA.gov is the U.S. government's official web portal to all federal, state and local government web resources and services.